Observations for BREST GUIPAVAS, France (LFRB)

LFRB 230530Z AUTO 22014KT 6000 OVC002 12/11 Q1020 TEMPO 0800 -DZ FG VV///   
LFRB 230500Z AUTO 23014KT 1500 BR VV/// 12/11 Q1020 TEMPO 22015G25KT DZ 
LFRB 230430Z AUTO 23014KT 0800 0700 R25/0900U R07/1100D FG VV/// 12/11 Q1020 TEMPO 22015G25KT DZ
LFRB 230400Z AUTO 22012KT 0700 0600 R25/0700D R07/1000D FG VV/// 12/11 Q1020 TEMPO 22015G25KT 0800 DZ FG
LFRB 230330Z AUTO 22012KT 1100 0900 R25/1500D R07/1300D -DZ BCFG VV/// 12/11 Q1020 TEMPO 22015G25KT DZ  
LFRB 230300Z AUTO 20011KT 0550 0400 R25/0600D R07/0900U FG VV/// 11/11 Q1021 TEMPO 22015G25KT 0800 DZ FG
LFRB 230230Z AUTO 19011KT 1800 1400 R25/P2000 R07/1700U BR VV/// 11/10 Q1021 TEMPO 22015G25KT 0800 DZ FG
LFRB 230200Z AUTO 18011KT 4800 -RADZ BR OVC002 10/10 Q1021 TEMPO 22015G25KT 0800 DZ FG VV///
LFRB 230130Z AUTO 18012KT 4800 -RA BR OVC002 10/10 Q1021 TEMPO 22015G25KT 0800 DZ FG VV///  
LFRB 230100Z AUTO 18011KT 3500 -RA BR OVC003 10/10 Q1021 TEMPO 22015G25KT 2000 -RADZ
LFRB 230030Z AUTO 18012KT 9999 OVC007 10/09 Q1022 TEMPO 22015G25KT 2000 -RADZ OVC003
LFRB 230000Z AUTO 19011KT 9999 OVC010 10/09 Q1022 TEMPO 22015G25KT 2000 -RADZ OVC003
LFRB 222330Z AUTO 19009KT 9999 BKN012 BKN068 09/09 Q1022 TEMPO 22015G25KT 2000 -RADZ OVC003 
LFRB 222300Z AUTO 18011KT 9999 SCT004 SCT080 09/09 Q1022 TEMPO 2000 -RADZ OVC003 BECMG 24015G25KT   
LFRB 222230Z AUTO 19009KT 8000 OVC004 10/09 Q1023 TEMPO 2000 -RADZ BKN008 BKN012 BECMG 24015G25KT   
LFRB 222200Z AUTO 18009KT 9000 OVC005 09/09 Q1023 NOSIG 
LFRB 222130Z AUTO 19007KT 9999 OVC002 09/09 Q1023 BECMG BKN009 OVC050   
LFRB 222100Z AUTO 20007KT 9999 BKN004 BKN015 BKN130 09/08 Q1023 BECMG BKN009 OVC050 
LFRB 222030Z AUTO 21007KT 9999 FEW006 BKN016 BKN130 09/08 Q1023 BECMG BKN009 OVC050 
LFRB 222000Z AUTO 22007KT CAVOK 09/08 Q1023 BECMG BKN012
LFRB 221930Z AUTO 23005KT 9999 FEW027 09/08 Q1023 BECMG BKN012  
LFRB 221900Z AUTO 24007KT 9999 FEW007 OVC029 10/09 Q1023 BECMG BKN012   
LFRB 221830Z AUTO 25008KT 9999 BKN008 BKN013 OVC031 10/09 Q1023 BECMG BKN012
LFRB 221800Z AUTO 25006KT 9999 BKN013 BKN018 OVC024 09/08 Q1023 NOSIG   
LFRB 221730Z AUTO 24006KT 9999 BKN011 BKN018 10/08 Q1023 NOSIG  
LFRB 221700Z AUTO 25005KT 9999 SCT014 09/07 Q1023 NOSIG 
LFRB 221630Z AUTO 28004KT 250V310 9999 BKN016 BKN025 11/08 Q1022 NOSIG  
LFRB 221600Z AUTO 29007KT 250V320 9999 FEW017 SCT023 BKN029 11/08 Q1022 NOSIG   
LFRB 221530Z AUTO 28007KT 250V310 9999 SCT021 BKN027 11/07 Q1022 NOSIG  
LFRB 221500Z AUTO 28009KT 240V300 9999 BKN023 OVC029 11/07 Q1022 NOSIG  
LFRB 221430Z AUTO 29010KT 260V330 9999 SCT026 BKN033 BKN039 11/06 Q1021 NOSIG   
LFRB 221400Z AUTO 29009KT 250V320 9999 SCT019 BKN028 BKN035 11/07 Q1021 NOSIG   
LFRB 221330Z AUTO 30011KT 260V340 9999 SCT024 BKN031 11/07 Q1021 NOSIG  
LFRB 221300Z AUTO 31011KT 270V340 9999 BKN015 OVC022 11/08 Q1020 NOSIG  
LFRB 221230Z AUTO 31010KT 270V340 9999 BKN017 BKN023 OVC030 11/08 Q1020 NOSIG   
LFRB 221200Z AUTO 31011KT 9999 BKN015 BKN031 11/08 Q1020 NOSIG  
LFRB 221130Z AUTO 31012KT 9999 BKN015 BKN025 OVC031 11/08 Q1020 NOSIG   
LFRB 221100Z AUTO 30014G24KT 270V330 9999 OVC015 11/09 Q1020 NOSIG  
LFRB 221030Z AUTO 31012KT 9999 BKN013 11/09 Q1019 BECMG BKN018  
LFRB 221000Z AUTO 32014KT 280V340 9999 BKN013 11/08 Q1018 BECMG BKN018  
LFRB 220930Z AUTO 31013KT 9999 FEW016 10/08 Q1018 NOSIG 
LFRB 220900Z AUTO 32018G28KT 9999 BKN014 BKN025 10/08 Q1017 BECMG 30013KT   
LFRB 220830Z AUTO 32018KT 9999 BKN017 OVC054 10/08 Q1016 TEMPO 32022G35KT BECMG BKN014  
LFRB 220800Z AUTO 32021G34KT 9999 BKN016 OVC022 10/08 Q1014 TEMPO 24025G37KT 2000 RA BR OVC002  
LFRB 220730Z AUTO 31025G42KT 9999 OVC014 10/09 Q1013 TEMPO 24025G37KT 2000 RA BR OVC002 
LFRB 220700Z AUTO 28023G35KT 250V320 9999 OVC010 11/10 Q1012 TEMPO 2000 RA BR OVC002
LFRB 220630Z AUTO 26022G35KT 230V290 7000 -RA OVC009 12/11 Q1011 TEMPO 2000 RA BR OVC002
LFRB 220600Z AUTO 25024G37KT 9999 BKN010 OVC014 12/11 Q1011 TEMPO 2000 RA BR OVC002 
LFRB 220530Z AUTO 24025KT 4300 -RA BR OVC004/// ///TCU 12/12 Q1012 TEMPO 24025G37KT 2000 RA BR OVC002   
LFRB 220500Z AUTO 24022KT 6000 OVC004 12/12 Q1012 TEMPO 32030G46KT BECMG 2000 RA